createdAt,value
2023-08-23T01:00:16.499Z,25.58
2023-08-23T01:01:51.141Z,25.59
2023-08-23T01:03:52.605Z,25.58
2023-08-23T01:06:27.433Z,25.58
2023-08-23T01:08:30.515Z,25.53
2023-08-23T02:46:54.515Z,24.32
2023-08-23T03:20:08.119Z,24.01
2023-08-23T03:22:41.781Z,24.01
2023-08-23T03:34:09.052Z,24.11
2023-08-23T03:36:42.868Z,24.11
2023-08-23T03:38:14.004Z,24.13
2023-08-23T03:40:16.369Z,24.13
2023-08-23T03:41:47.486Z,24.13
2023-08-23T03:43:18.652Z,24.13
2023-08-23T03:45:22.078Z,24.13
2023-08-23T03:47:27.545Z,24.10
2023-08-23T06:23:52.672Z,25.80
2023-08-23T06:25:23.876Z,25.88
2023-08-23T06:26:55.980Z,25.98
2023-08-23T06:28:30.027Z,26.06
2023-08-23T06:31:02.650Z,26.21
2023-08-23T06:52:26.047Z,26.38
2023-08-23T06:54:29.166Z,26.36
2023-08-23T06:56:01.311Z,26.31
2023-08-23T06:58:46.217Z,26.18
2023-08-23T07:00:18.397Z,26.19
2023-08-23T07:02:53.139Z,26.33
2023-08-23T07:04:55.331Z,26.45
2023-08-23T07:06:26.471Z,26.48
2023-08-23T07:07:58.664Z,26.52
2023-08-23T07:10:07.805Z,26.63
2023-08-23T07:11:34.520Z,26.70
2023-08-23T07:13:38.154Z,26.74
2023-08-23T07:15:09.317Z,26.83
2023-08-23T07:16:40.596Z,26.92
2023-08-23T07:18:12.033Z,26.96
2023-08-23T07:20:07.837Z,27.02
2023-08-23T07:25:08.684Z,27.29
2023-08-23T07:27:42.181Z,27.37
2023-08-23T07:29:14.777Z,27.42
2023-08-23T07:51:37.558Z,28.17
2023-08-23T07:56:30.057Z,28.27
2023-08-23T07:58:03.581Z,28.26
2023-08-23T08:00:07.198Z,28.26
2023-08-23T08:10:35.259Z,28.97
2023-08-23T08:12:38.070Z,29.08
2023-08-23T08:15:46.455Z,29.26
2023-08-23T08:17:19.544Z,29.34
2023-08-23T08:18:50.712Z,29.44
2023-08-23T08:21:54.986Z,29.61
2023-08-23T08:23:26.706Z,29.63
2023-08-23T08:24:57.964Z,29.65
2023-08-23T08:26:29.038Z,29.66
2023-08-23T08:28:00.225Z,29.61
2023-08-23T08:29:32.717Z,29.60
2023-08-23T08:31:04.900Z,29.68
2023-08-23T08:33:09.986Z,29.56
2023-08-23T08:36:15.124Z,29.51
2023-08-23T08:37:47.639Z,29.45
2023-08-23T08:39:18.759Z,29.44
2023-08-23T09:00:10.981Z,29.71
2023-08-23T09:01:45.520Z,29.79
2023-08-23T09:04:18.281Z,30.06
2023-08-23T09:06:21.010Z,30.23
2023-08-23T09:08:57.791Z,30.34
2023-08-23T09:14:17.381Z,30.47
2023-08-23T09:19:06.998Z,30.63
2023-08-23T10:46:31.028Z,35.37
2023-08-23T10:48:37.122Z,35.85
2023-08-23T11:39:45.977Z,34.86
2023-08-23T11:58:10.305Z,35.41
2023-08-23T12:39:45.321Z,36.09
2023-08-23T12:41:17.347Z,36.14
2023-08-23T12:42:47.639Z,36.21
2023-08-23T12:46:24.553Z,36.07
2023-08-23T12:47:57.465Z,36.01
2023-08-23T13:51:14.813Z,36.20
2023-08-23T13:52:59.304Z,36.17
2023-08-23T13:54:30.912Z,36.07
2023-08-23T13:56:02.353Z,36.08
2023-08-23T14:01:28.349Z,36.09
2023-08-23T14:47:04.096Z,35.64
2023-08-23T14:48:35.264Z,35.60
2023-08-23T14:52:56.628Z,35.34
2023-08-23T14:55:09.959Z,35.27
2023-08-23T14:56:41.072Z,35.23
2023-08-23T14:58:13.423Z,35.22
2023-08-23T15:00:15.814Z,35.24
2023-08-23T15:03:21.908Z,35.30
2023-08-23T15:04:52.990Z,35.29
2023-08-23T15:06:24.093Z,35.23
2023-08-23T15:07:55.269Z,35.26
2023-08-23T15:59:50.422Z,34.80
2023-08-23T16:10:15.722Z,34.51
2023-08-23T16:12:19.544Z,34.48
2023-08-23T16:14:53.895Z,34.47
2023-08-23T18:56:37.143Z,29.57
2023-08-23T18:59:25.138Z,29.51
2023-08-23T19:00:56.310Z,29.50
2023-08-23T19:02:27.497Z,29.45
2023-08-23T19:03:58.740Z,29.42
2023-08-23T19:06:02.006Z,29.38
2023-08-23T19:08:35.547Z,29.41
2023-08-23T19:10:06.695Z,29.45
2023-08-23T19:11:37.901Z,29.42
2023-08-23T19:20:33.342Z,29.35
2023-08-23T19:51:50.598Z,28.75
2023-08-23T19:53:53.335Z,28.70
2023-08-23T19:55:24.472Z,28.69
2023-08-23T19:56:55.630Z,28.66
2023-08-23T20:59:45.445Z,28.02
2023-08-23T21:11:15.386Z,27.90
2023-08-23T21:14:54.573Z,27.93
2023-08-23T21:16:58.002Z,27.90
2023-08-23T21:19:01.825Z,27.80
2023-08-23T21:50:34.540Z,27.32
2023-08-23T21:52:06.406Z,27.30
2023-08-23T21:53:37.657Z,27.33
2023-08-23T21:55:10.117Z,27.32
2023-08-23T21:56:41.646Z,27.29
2023-08-23T21:58:12.697Z,27.30
2023-08-23T22:28:47.112Z,27.14
2023-08-23T22:30:49.447Z,27.17
2023-08-23T22:32:51.820Z,27.21
2023-08-23T23:03:33.526Z,26.66
2023-08-23T23:05:04.791Z,26.66
2023-08-23T23:06:35.920Z,26.66
2023-08-23T23:08:06.617Z,26.63
2023-08-23T23:10:41.722Z,26.66
2023-08-23T23:12:45.867Z,26.68
2023-08-23T23:14:49.707Z,26.66
2023-08-23T23:16:20.882Z,26.65
2023-08-23T23:18:23.699Z,26.55
2023-08-23T23:38:39.213Z,26.13
2023-08-23T23:41:00.028Z,26.09
2023-08-23T23:43:41.911Z,26.09
2023-08-23T23:45:54.374Z,26.06
2023-08-23T23:48:15.715Z,26.02
2023-08-23T23:50:10.933Z,25.98
2023-08-23T23:57:34.062Z,25.85
